Metar z połowy godziny Komunikat METAR ze strony awiacja.imgw.pl Metar Mil EPRA METAR EPRA 261130Z 28012KT 9999 SCT019 BKN042 00/M03 Q1006 RMK 003 079 7/4=